KLYO/LYO METAR and TAF weather

Enter ICAO airport designator
Station Type Date Time Source
KLYO METAR 2024/04/18 07:15 UTC NOAA

KLYO 180715Z AUTO 17017KT 10SM OVC022 21/17 A2973 RMK AO2 T02140170


Station Type Date Time Source
KLYO Decoded METAR 2024/04/18 07:15 UTC NOAA

Station name not available
Apr 18, 2024 - 03:15 AM EDT / 2024.04.18 0715 UTC
Wind: from the S (170 degrees) at 20 MPH (17 KT):0
Visibility: 10 mile(s):0
Sky conditions: overcast
Temperature: 70.5 F (21.4 C)
Dew Point: 62.6 F (17.0 C)
Relative Humidity: 76%
Pressure (altimeter): 29.73 in. Hg (1006 hPa)
ob: KLYO 180715Z AUTO 17017KT 10SM OVC022 21/17 A2973 RMK AO2 T02140170
cycle: 7

Station Type Date Time Source
KLYO TAF UTC NOAA

Error!

Example: see airport list